sensor_id;sensor_type;location;lat;lon;timestamp;P1;durP1;ratioP1;P2;durP2;ratioP2
1262;SDS011;62267;50.112;8.704;2023-04-25T00:01:44;9.17;;;8.00;;
1262;SDS011;62267;50.112;8.704;2023-04-25T00:04:11;11.60;;;8.47;;
1262;SDS011;62267;50.112;8.704;2023-04-25T00:06:39;12.40;;;8.27;;
1262;SDS011;62267;50.112;8.704;2023-04-25T00:09:07;10.73;;;8.33;;
1262;SDS011;62267;50.112;8.704;2023-04-25T00:11:36;10.07;;;8.20;;
1262;SDS011;62267;50.112;8.704;2023-04-25T00:14:04;8.43;;;7.07;;
1262;SDS011;62267;50.112;8.704;2023-04-25T00:16:33;8.43;;;7.33;;
1262;SDS011;62267;50.112;8.704;2023-04-25T00:19:02;9.47;;;8.17;;
1262;SDS011;62267;50.112;8.704;2023-04-25T00:21:30;9.10;;;7.33;;
1262;SDS011;62267;50.112;8.704;2023-04-25T00:23:58;8.73;;;6.77;;
1262;SDS011;62267;50.112;8.704;2023-04-25T00:26:27;9.37;;;7.77;;
1262;SDS011;62267;50.112;8.704;2023-04-25T00:28:54;9.23;;;7.40;;
1262;SDS011;62267;50.112;8.704;2023-04-25T00:31:22;7.40;;;6.60;;
1262;SDS011;62267;50.112;8.704;2023-04-25T00:33:50;7.67;;;6.53;;
1262;SDS011;62267;50.112;8.704;2023-04-25T00:36:18;8.63;;;5.80;;
1262;SDS011;62267;50.112;8.704;2023-04-25T00:38:46;9.17;;;5.90;;
1262;SDS011;62267;50.112;8.704;2023-04-25T00:41:13;7.50;;;6.73;;
1262;SDS011;62267;50.112;8.704;2023-04-25T00:43:41;8.77;;;5.93;;
1262;SDS011;62267;50.112;8.704;2023-04-25T00:46:09;8.20;;;6.87;;
1262;SDS011;62267;50.112;8.704;2023-04-25T00:48:37;7.27;;;6.53;;
1262;SDS011;62267;50.112;8.704;2023-04-25T00:51:05;9.97;;;7.23;;
1262;SDS011;62267;50.112;8.704;2023-04-25T00:53:34;8.83;;;6.97;;
1262;SDS011;62267;50.112;8.704;2023-04-25T00:56:02;9.13;;;8.17;;
1262;SDS011;62267;50.112;8.704;2023-04-25T00:58:29;9.17;;;7.23;;
1262;SDS011;62267;50.112;8.704;2023-04-25T01:00:58;11.20;;;8.23;;
1262;SDS011;62267;50.112;8.704;2023-04-25T01:03:26;9.70;;;8.37;;
1262;SDS011;62267;50.112;8.704;2023-04-25T01:05:55;9.47;;;7.80;;
1262;SDS011;62267;50.112;8.704;2023-04-25T01:08:23;8.90;;;7.10;;
1262;SDS011;62267;50.112;8.704;2023-04-25T01:10:52;9.23;;;8.30;;
1262;SDS011;62267;50.112;8.704;2023-04-25T01:13:19;9.20;;;7.27;;
1262;SDS011;62267;50.112;8.704;2023-04-25T01:15:47;10.30;;;7.80;;
1262;SDS011;62267;50.112;8.704;2023-04-25T01:18:15;11.80;;;7.73;;
1262;SDS011;62267;50.112;8.704;2023-04-25T01:20:43;9.47;;;7.13;;
1262;SDS011;62267;50.112;8.704;2023-04-25T01:23:11;8.77;;;7.60;;
1262;SDS011;62267;50.112;8.704;2023-04-25T01:25:38;11.20;;;8.00;;
1262;SDS011;62267;50.112;8.704;2023-04-25T01:28:07;8.80;;;7.13;;
1262;SDS011;62267;50.112;8.704;2023-04-25T01:30:35;8.97;;;7.53;;
1262;SDS011;62267;50.112;8.704;2023-04-25T01:33:05;10.90;;;8.87;;
1262;SDS011;62267;50.112;8.704;2023-04-25T01:35:33;9.87;;;7.87;;
1262;SDS011;62267;50.112;8.704;2023-04-25T01:38:01;8.43;;;7.63;;
1262;SDS011;62267;50.112;8.704;2023-04-25T01:40:29;8.00;;;7.07;;
1262;SDS011;62267;50.112;8.704;2023-04-25T01:42:57;11.30;;;8.10;;
1262;SDS011;62267;50.112;8.704;2023-04-25T01:45:25;8.83;;;7.93;;
1262;SDS011;62267;50.112;8.704;2023-04-25T01:47:56;11.50;;;9.10;;
1262;SDS011;62267;50.112;8.704;2023-04-25T01:50:26;11.87;;;8.57;;
1262;SDS011;62267;50.112;8.704;2023-04-25T01:52:54;10.30;;;8.00;;
1262;SDS011;62267;50.112;8.704;2023-04-25T01:55:21;12.20;;;8.40;;
1262;SDS011;62267;50.112;8.704;2023-04-25T01:58:02;10.60;;;7.07;;
1262;SDS011;62267;50.112;8.704;2023-04-25T02:00:51;11.93;;;9.70;;
1262;SDS011;62267;50.112;8.704;2023-04-25T02:03:18;9.30;;;7.70;;
1262;SDS011;62267;50.112;8.704;2023-04-25T02:05:46;10.40;;;8.53;;
1262;SDS011;62267;50.112;8.704;2023-04-25T02:08:21;8.40;;;6.83;;
1262;SDS011;62267;50.112;8.704;2023-04-25T02:10:49;8.60;;;7.80;;
1262;SDS011;62267;50.112;8.704;2023-04-25T02:13:18;8.23;;;7.43;;
1262;SDS011;62267;50.112;8.704;2023-04-25T02:15:59;8.93;;;8.03;;
1262;SDS011;62267;50.112;8.704;2023-04-25T02:18:26;10.60;;;8.70;;
1262;SDS011;62267;50.112;8.704;2023-04-25T02:20:54;11.73;;;9.97;;
1262;SDS011;62267;50.112;8.704;2023-04-25T02:23:22;8.97;;;7.60;;
1262;SDS011;62267;50.112;8.704;2023-04-25T02:25:51;7.90;;;7.20;;
1262;SDS011;62267;50.112;8.704;2023-04-25T02:28:20;9.07;;;7.30;;
1262;SDS011;62267;50.112;8.704;2023-04-25T02:31:05;10.17;;;7.70;;
1262;SDS011;62267;50.112;8.704;2023-04-25T02:33:33;10.53;;;8.60;;
1262;SDS011;62267;50.112;8.704;2023-04-25T02:36:00;13.40;;;9.07;;
1262;SDS011;62267;50.112;8.704;2023-04-25T02:38:28;9.97;;;8.93;;
1262;SDS011;62267;50.112;8.704;2023-04-25T02:40:56;11.53;;;8.93;;
1262;SDS011;62267;50.112;8.704;2023-04-25T02:43:25;12.00;;;10.30;;
1262;SDS011;62267;50.112;8.704;2023-04-25T02:45:52;10.97;;;9.87;;
1262;SDS011;62267;50.112;8.704;2023-04-25T02:48:22;10.40;;;8.87;;
1262;SDS011;62267;50.112;8.704;2023-04-25T02:50:50;9.83;;;8.10;;
1262;SDS011;62267;50.112;8.704;2023-04-25T02:53:17;13.50;;;9.57;;
1262;SDS011;62267;50.112;8.704;2023-04-25T02:55:48;10.80;;;9.10;;
1262;SDS011;62267;50.112;8.704;2023-04-25T02:58:17;12.70;;;9.70;;
1262;SDS011;62267;50.112;8.704;2023-04-25T03:00:48;15.93;;;10.63;;
1262;SDS011;62267;50.112;8.704;2023-04-25T03:03:16;13.67;;;10.33;;
1262;SDS011;62267;50.112;8.704;2023-04-25T03:05:45;12.67;;;9.87;;
1262;SDS011;62267;50.112;8.704;2023-04-25T03:08:15;11.03;;;8.47;;
1262;SDS011;62267;50.112;8.704;2023-04-25T03:10:44;13.10;;;10.90;;
1262;SDS011;62267;50.112;8.704;2023-04-25T03:13:14;10.63;;;9.60;;
1262;SDS011;62267;50.112;8.704;2023-04-25T03:15:43;13.03;;;10.10;;
1262;SDS011;62267;50.112;8.704;2023-04-25T03:18:10;13.43;;;11.17;;
1262;SDS011;62267;50.112;8.704;2023-04-25T03:20:38;10.47;;;9.13;;
1262;SDS011;62267;50.112;8.704;2023-04-25T03:23:08;13.80;;;10.60;;
1262;SDS011;62267;50.112;8.704;2023-04-25T03:25:38;11.57;;;9.40;;
1262;SDS011;62267;50.112;8.704;2023-04-25T03:28:06;13.63;;;11.40;;
1262;SDS011;62267;50.112;8.704;2023-04-25T03:30:34;15.23;;;10.20;;
1262;SDS011;62267;50.112;8.704;2023-04-25T03:33:02;11.20;;;9.13;;
1262;SDS011;62267;50.112;8.704;2023-04-25T03:35:29;12.87;;;9.80;;
1262;SDS011;62267;50.112;8.704;2023-04-25T03:37:58;15.17;;;9.80;;
1262;SDS011;62267;50.112;8.704;2023-04-25T03:40:29;12.67;;;9.43;;
1262;SDS011;62267;50.112;8.704;2023-04-25T03:43:07;16.67;;;10.77;;
1262;SDS011;62267;50.112;8.704;2023-04-25T03:45:37;13.70;;;10.97;;
1262;SDS011;62267;50.112;8.704;2023-04-25T03:48:04;12.87;;;9.77;;
1262;SDS011;62267;50.112;8.704;2023-04-25T03:50:32;12.83;;;8.63;;
1262;SDS011;62267;50.112;8.704;2023-04-25T03:53:03;12.73;;;8.73;;
1262;SDS011;62267;50.112;8.704;2023-04-25T03:55:53;12.13;;;9.57;;
1262;SDS011;62267;50.112;8.704;2023-04-25T03:58:21;15.77;;;9.87;;
1262;SDS011;62267;50.112;8.704;2023-04-25T04:00:50;13.00;;;8.87;;
1262;SDS011;62267;50.112;8.704;2023-04-25T04:03:18;11.93;;;9.50;;
1262;SDS011;62267;50.112;8.704;2023-04-25T04:05:47;12.23;;;9.93;;
1262;SDS011;62267;50.112;8.704;2023-04-25T04:08:15;18.23;;;10.20;;
1262;SDS011;62267;50.112;8.704;2023-04-25T04:10:42;13.40;;;9.87;;
1262;SDS011;62267;50.112;8.704;2023-04-25T04:13:10;12.73;;;9.83;;
1262;SDS011;62267;50.112;8.704;2023-04-25T04:15:38;14.50;;;10.50;;
1262;SDS011;62267;50.112;8.704;2023-04-25T04:18:05;14.03;;;10.93;;
1262;SDS011;62267;50.112;8.704;2023-04-25T04:20:33;15.40;;;10.17;;
1262;SDS011;62267;50.112;8.704;2023-04-25T04:23:02;15.00;;;11.13;;
1262;SDS011;62267;50.112;8.704;2023-04-25T04:25:32;13.07;;;11.13;;
1262;SDS011;62267;50.112;8.704;2023-04-25T04:28:23;15.03;;;10.80;;
1262;SDS011;62267;50.112;8.704;2023-04-25T04:30:56;13.00;;;10.07;;
1262;SDS011;62267;50.112;8.704;2023-04-25T04:33:26;11.77;;;10.53;;
1262;SDS011;62267;50.112;8.704;2023-04-25T04:36:01;16.03;;;10.27;;
1262;SDS011;62267;50.112;8.704;2023-04-25T04:38:30;16.50;;;12.03;;
1262;SDS011;62267;50.112;8.704;2023-04-25T04:41:01;14.43;;;8.97;;
1262;SDS011;62267;50.112;8.704;2023-04-25T04:43:48;14.00;;;8.60;;
1262;SDS011;62267;50.112;8.704;2023-04-25T04:46:30;13.97;;;9.00;;
1262;SDS011;62267;50.112;8.704;2023-04-25T04:49:11;12.50;;;7.23;;
1262;SDS011;62267;50.112;8.704;2023-04-25T04:51:40;11.40;;;8.30;;
1262;SDS011;62267;50.112;8.704;2023-04-25T04:54:36;10.53;;;7.70;;
1262;SDS011;62267;50.112;8.704;2023-04-25T04:57:16;12.33;;;7.53;;
1262;SDS011;62267;50.112;8.704;2023-04-25T04:59:56;10.93;;;8.00;;
1262;SDS011;62267;50.112;8.704;2023-04-25T05:02:42;16.60;;;9.33;;
1262;SDS011;62267;50.112;8.704;2023-04-25T05:05:25;13.43;;;8.47;;
1262;SDS011;62267;50.112;8.704;2023-04-25T05:07:58;14.80;;;8.57;;
1262;SDS011;62267;50.112;8.704;2023-04-25T05:10:56;13.73;;;8.47;;
1262;SDS011;62267;50.112;8.704;2023-04-25T05:13:39;14.80;;;8.10;;
1262;SDS011;62267;50.112;8.704;2023-04-25T05:16:35;12.20;;;8.40;;
1262;SDS011;62267;50.112;8.704;2023-04-25T05:19:21;12.00;;;8.23;;
1262;SDS011;62267;50.112;8.704;2023-04-25T05:22:12;11.77;;;6.97;;
1262;SDS011;62267;50.112;8.704;2023-04-25T05:25:06;12.90;;;7.37;;
1262;SDS011;62267;50.112;8.704;2023-04-25T05:27:53;11.43;;;7.97;;
1262;SDS011;62267;50.112;8.704;2023-04-25T05:30:30;9.20;;;7.80;;
1262;SDS011;62267;50.112;8.704;2023-04-25T05:33:15;11.20;;;7.70;;
1262;SDS011;62267;50.112;8.704;2023-04-25T05:35:44;9.73;;;7.53;;
1262;SDS011;62267;50.112;8.704;2023-04-25T05:38:11;13.13;;;6.97;;
1262;SDS011;62267;50.112;8.704;2023-04-25T05:40:59;13.97;;;8.27;;
1262;SDS011;62267;50.112;8.704;2023-04-25T05:43:43;16.00;;;7.40;;
1262;SDS011;62267;50.112;8.704;2023-04-25T05:46:23;11.33;;;6.10;;
1262;SDS011;62267;50.112;8.704;2023-04-25T05:49:16;12.60;;;6.70;;
1262;SDS011;62267;50.112;8.704;2023-04-25T05:52:04;11.00;;;7.30;;
1262;SDS011;62267;50.112;8.704;2023-04-25T05:54:47;7.70;;;6.90;;
1262;SDS011;62267;50.112;8.704;2023-04-25T05:57:24;12.30;;;6.00;;
1262;SDS011;62267;50.112;8.704;2023-04-25T05:59:54;10.07;;;5.90;;
1262;SDS011;62267;50.112;8.704;2023-04-25T06:02:44;12.20;;;7.40;;
1262;SDS011;62267;50.112;8.704;2023-04-25T06:05:13;6.83;;;5.77;;
1262;SDS011;62267;50.112;8.704;2023-04-25T06:07:43;8.63;;;5.97;;
1262;SDS011;62267;50.112;8.704;2023-04-25T06:10:11;8.90;;;7.20;;
1262;SDS011;62267;50.112;8.704;2023-04-25T06:12:39;9.07;;;6.00;;
1262;SDS011;62267;50.112;8.704;2023-04-25T06:15:07;8.03;;;6.60;;
1262;SDS011;62267;50.112;8.704;2023-04-25T06:17:52;11.20;;;7.70;;
1262;SDS011;62267;50.112;8.704;2023-04-25T06:20:21;9.90;;;7.40;;
1262;SDS011;62267;50.112;8.704;2023-04-25T06:22:52;11.90;;;7.23;;
1262;SDS011;62267;50.112;8.704;2023-04-25T06:25:24;10.87;;;7.03;;
1262;SDS011;62267;50.112;8.704;2023-04-25T06:27:53;11.47;;;7.80;;
1262;SDS011;62267;50.112;8.704;2023-04-25T06:30:21;11.90;;;7.03;;
1262;SDS011;62267;50.112;8.704;2023-04-25T06:32:56;8.67;;;6.03;;
1262;SDS011;62267;50.112;8.704;2023-04-25T06:35:24;11.23;;;6.97;;
1262;SDS011;62267;50.112;8.704;2023-04-25T06:37:54;8.60;;;6.47;;
1262;SDS011;62267;50.112;8.704;2023-04-25T06:40:23;8.73;;;6.27;;
1262;SDS011;62267;50.112;8.704;2023-04-25T06:42:51;10.00;;;6.57;;
1262;SDS011;62267;50.112;8.704;2023-04-25T06:45:46;7.00;;;5.80;;
1262;SDS011;62267;50.112;8.704;2023-04-25T06:48:15;9.97;;;5.70;;
1262;SDS011;62267;50.112;8.704;2023-04-25T06:50:46;5.37;;;4.87;;
1262;SDS011;62267;50.112;8.704;2023-04-25T06:53:17;6.67;;;5.23;;
1262;SDS011;62267;50.112;8.704;2023-04-25T06:55:50;6.30;;;5.53;;
1262;SDS011;62267;50.112;8.704;2023-04-25T06:58:22;7.07;;;5.30;;
1262;SDS011;62267;50.112;8.704;2023-04-25T07:01:12;7.50;;;6.60;;
1262;SDS011;62267;50.112;8.704;2023-04-25T07:03:40;9.30;;;6.27;;
1262;SDS011;62267;50.112;8.704;2023-04-25T07:06:13;10.73;;;6.20;;
1262;SDS011;62267;50.112;8.704;2023-04-25T07:08:42;5.37;;;4.47;;
1262;SDS011;62267;50.112;8.704;2023-04-25T07:11:09;6.60;;;5.40;;
1262;SDS011;62267;50.112;8.704;2023-04-25T07:13:36;10.93;;;6.00;;
1262;SDS011;62267;50.112;8.704;2023-04-25T07:16:05;12.63;;;8.17;;
1262;SDS011;62267;50.112;8.704;2023-04-25T07:18:34;9.43;;;5.80;;
1262;SDS011;62267;50.112;8.704;2023-04-25T07:21:02;10.77;;;7.10;;
1262;SDS011;62267;50.112;8.704;2023-04-25T07:23:31;7.27;;;5.73;;
1262;SDS011;62267;50.112;8.704;2023-04-25T07:26:03;8.47;;;5.40;;
1262;SDS011;62267;50.112;8.704;2023-04-25T07:28:30;5.90;;;5.23;;
1262;SDS011;62267;50.112;8.704;2023-04-25T07:30:58;9.50;;;5.77;;
1262;SDS011;62267;50.112;8.704;2023-04-25T07:33:25;7.80;;;5.33;;
1262;SDS011;62267;50.112;8.704;2023-04-25T07:35:53;8.33;;;5.00;;
1262;SDS011;62267;50.112;8.704;2023-04-25T07:38:22;9.00;;;5.77;;
1262;SDS011;62267;50.112;8.704;2023-04-25T07:40:50;7.43;;;5.40;;
1262;SDS011;62267;50.112;8.704;2023-04-25T07:43:18;8.63;;;6.03;;
1262;SDS011;62267;50.112;8.704;2023-04-25T07:45:52;9.37;;;5.50;;
1262;SDS011;62267;50.112;8.704;2023-04-25T07:48:22;7.80;;;5.00;;
1262;SDS011;62267;50.112;8.704;2023-04-25T07:50:52;8.33;;;5.00;;
1262;SDS011;62267;50.112;8.704;2023-04-25T07:53:19;8.40;;;5.17;;
1262;SDS011;62267;50.112;8.704;2023-04-25T07:55:54;8.77;;;5.37;;
1262;SDS011;62267;50.112;8.704;2023-04-25T07:58:22;8.90;;;5.47;;
1262;SDS011;62267;50.112;8.704;2023-04-25T08:00:54;5.90;;;5.30;;
1262;SDS011;62267;50.112;8.704;2023-04-25T08:03:41;7.37;;;4.77;;
1262;SDS011;62267;50.112;8.704;2023-04-25T08:06:15;5.03;;;4.10;;
1262;SDS011;62267;50.112;8.704;2023-04-25T08:08:54;5.80;;;4.43;;
1262;SDS011;62267;50.112;8.704;2023-04-25T08:11:27;5.20;;;4.40;;
1262;SDS011;62267;50.112;8.704;2023-04-25T08:13:54;5.20;;;4.70;;
1262;SDS011;62267;50.112;8.704;2023-04-25T08:16:22;8.47;;;5.80;;
1262;SDS011;62267;50.112;8.704;2023-04-25T08:18:51;12.57;;;6.27;;
1262;SDS011;62267;50.112;8.704;2023-04-25T08:21:19;9.87;;;6.37;;
1262;SDS011;62267;50.112;8.704;2023-04-25T08:23:48;9.93;;;5.57;;
1262;SDS011;62267;50.112;8.704;2023-04-25T08:26:28;10.50;;;5.17;;
1262;SDS011;62267;50.112;8.704;2023-04-25T08:28:56;5.07;;;4.60;;
1262;SDS011;62267;50.112;8.704;2023-04-25T08:31:23;12.27;;;5.50;;
1262;SDS011;62267;50.112;8.704;2023-04-25T08:33:56;8.03;;;5.27;;
1262;SDS011;62267;50.112;8.704;2023-04-25T08:36:52;5.80;;;5.07;;
1262;SDS011;62267;50.112;8.704;2023-04-25T08:39:42;8.23;;;5.40;;
1262;SDS011;62267;50.112;8.704;2023-04-25T08:42:29;5.80;;;5.20;;
1262;SDS011;62267;50.112;8.704;2023-04-25T08:44:58;6.33;;;5.47;;
1262;SDS011;62267;50.112;8.704;2023-04-25T08:47:45;7.40;;;5.50;;
1262;SDS011;62267;50.112;8.704;2023-04-25T08:50:13;9.33;;;5.80;;
1262;SDS011;62267;50.112;8.704;2023-04-25T08:52:44;7.17;;;5.80;;
1262;SDS011;62267;50.112;8.704;2023-04-25T08:55:15;6.83;;;5.80;;
1262;SDS011;62267;50.112;8.704;2023-04-25T08:57:43;9.90;;;6.00;;
1262;SDS011;62267;50.112;8.704;2023-04-25T09:00:11;7.57;;;5.83;;
1262;SDS011;62267;50.112;8.704;2023-04-25T09:02:40;8.00;;;6.13;;
1262;SDS011;62267;50.112;8.704;2023-04-25T09:05:12;8.27;;;5.50;;
1262;SDS011;62267;50.112;8.704;2023-04-25T09:07:39;8.83;;;6.80;;
1262;SDS011;62267;50.112;8.704;2023-04-25T09:10:07;7.37;;;5.90;;
1262;SDS011;62267;50.112;8.704;2023-04-25T09:12:36;7.43;;;5.60;;
1262;SDS011;62267;50.112;8.704;2023-04-25T09:15:10;7.30;;;5.37;;
1262;SDS011;62267;50.112;8.704;2023-04-25T09:17:55;6.83;;;5.70;;
1262;SDS011;62267;50.112;8.704;2023-04-25T09:20:25;6.23;;;5.63;;
1262;SDS011;62267;50.112;8.704;2023-04-25T09:23:00;8.93;;;5.83;;
1262;SDS011;62267;50.112;8.704;2023-04-25T09:25:34;10.47;;;6.60;;
1262;SDS011;62267;50.112;8.704;2023-04-25T09:28:03;7.53;;;5.70;;
1262;SDS011;62267;50.112;8.704;2023-04-25T09:30:32;8.43;;;6.10;;
1262;SDS011;62267;50.112;8.704;2023-04-25T09:33:08;9.40;;;6.30;;
1262;SDS011;62267;50.112;8.704;2023-04-25T09:35:38;9.17;;;6.30;;
1262;SDS011;62267;50.112;8.704;2023-04-25T09:38:09;7.27;;;5.90;;
1262;SDS011;62267;50.112;8.704;2023-04-25T09:41:08;5.40;;;4.90;;
1262;SDS011;62267;50.112;8.704;2023-04-25T09:43:44;6.33;;;5.20;;
1262;SDS011;62267;50.112;8.704;2023-04-25T09:46:13;6.93;;;5.47;;
1262;SDS011;62267;50.112;8.704;2023-04-25T09:48:48;5.63;;;5.03;;
1262;SDS011;62267;50.112;8.704;2023-04-25T09:51:22;6.63;;;5.67;;
1262;SDS011;62267;50.112;8.704;2023-04-25T09:53:55;6.40;;;5.63;;
1262;SDS011;62267;50.112;8.704;2023-04-25T09:56:32;13.60;;;7.20;;
1262;SDS011;62267;50.112;8.704;2023-04-25T09:59:05;8.00;;;6.17;;
1262;SDS011;62267;50.112;8.704;2023-04-25T10:01:35;7.10;;;5.77;;
1262;SDS011;62267;50.112;8.704;2023-04-25T10:04:10;6.10;;;5.50;;
1262;SDS011;62267;50.112;8.704;2023-04-25T10:06:52;6.90;;;5.30;;
1262;SDS011;62267;50.112;8.704;2023-04-25T10:09:20;7.30;;;5.70;;
1262;SDS011;62267;50.112;8.704;2023-04-25T10:11:47;7.57;;;5.30;;
1262;SDS011;62267;50.112;8.704;2023-04-25T10:14:15;9.10;;;5.73;;
1262;SDS011;62267;50.112;8.704;2023-04-25T10:16:42;9.47;;;7.33;;
1262;SDS011;62267;50.112;8.704;2023-04-25T10:19:10;6.27;;;5.67;;
1262;SDS011;62267;50.112;8.704;2023-04-25T10:21:40;6.77;;;6.00;;
1262;SDS011;62267;50.112;8.704;2023-04-25T10:24:11;7.00;;;5.33;;
1262;SDS011;62267;50.112;8.704;2023-04-25T10:26:39;11.00;;;8.60;;
1262;SDS011;62267;50.112;8.704;2023-04-25T10:29:07;9.07;;;5.60;;
1262;SDS011;62267;50.112;8.704;2023-04-25T10:31:34;6.60;;;5.57;;
1262;SDS011;62267;50.112;8.704;2023-04-25T10:34:11;8.60;;;6.53;;
1262;SDS011;62267;50.112;8.704;2023-04-25T10:36:38;5.67;;;5.13;;
1262;SDS011;62267;50.112;8.704;2023-04-25T10:39:06;7.80;;;6.10;;
1262;SDS011;62267;50.112;8.704;2023-04-25T10:41:48;9.87;;;6.20;;
1262;SDS011;62267;50.112;8.704;2023-04-25T10:44:18;6.70;;;5.70;;
1262;SDS011;62267;50.112;8.704;2023-04-25T10:46:46;5.83;;;5.30;;
1262;SDS011;62267;50.112;8.704;2023-04-25T10:49:28;6.63;;;5.83;;
1262;SDS011;62267;50.112;8.704;2023-04-25T10:54:52;7.43;;;6.30;;
1262;SDS011;62267;50.112;8.704;2023-04-25T10:57:26;6.97;;;5.00;;
1262;SDS011;62267;50.112;8.704;2023-04-25T10:59:58;8.20;;;5.83;;
1262;SDS011;62267;50.112;8.704;2023-04-25T11:02:26;6.30;;;5.70;;
1262;SDS011;62267;50.112;8.704;2023-04-25T11:04:54;6.23;;;5.63;;
1262;SDS011;62267;50.112;8.704;2023-04-25T11:07:37;8.30;;;7.03;;
1262;SDS011;62267;50.112;8.704;2023-04-25T11:10:05;9.90;;;7.33;;
1262;SDS011;62267;50.112;8.704;2023-04-25T11:12:32;6.80;;;5.23;;
1262;SDS011;62267;50.112;8.704;2023-04-25T11:15:03;6.23;;;5.63;;
1262;SDS011;62267;50.112;8.704;2023-04-25T11:17:31;7.40;;;5.77;;
1262;SDS011;62267;50.112;8.704;2023-04-25T11:19:58;7.50;;;5.40;;
1262;SDS011;62267;50.112;8.704;2023-04-25T11:22:26;8.43;;;5.53;;
1262;SDS011;62267;50.112;8.704;2023-04-25T11:24:53;6.93;;;5.77;;
1262;SDS011;62267;50.112;8.704;2023-04-25T11:27:21;8.03;;;4.83;;
1262;SDS011;62267;50.112;8.704;2023-04-25T11:29:48;8.43;;;5.60;;
1262;SDS011;62267;50.112;8.704;2023-04-25T11:32:15;11.17;;;6.40;;
1262;SDS011;62267;50.112;8.704;2023-04-25T11:34:45;6.50;;;5.27;;
1262;SDS011;62267;50.112;8.704;2023-04-25T11:37:12;10.70;;;6.40;;
1262;SDS011;62267;50.112;8.704;2023-04-25T11:39:43;6.10;;;5.50;;
1262;SDS011;62267;50.112;8.704;2023-04-25T11:42:11;6.40;;;5.30;;
1262;SDS011;62267;50.112;8.704;2023-04-25T11:44:39;5.80;;;5.30;;
1262;SDS011;62267;50.112;8.704;2023-04-25T11:47:07;10.90;;;5.30;;
1262;SDS011;62267;50.112;8.704;2023-04-25T11:49:35;5.63;;;4.80;;
1262;SDS011;62267;50.112;8.704;2023-04-25T11:52:02;8.37;;;5.33;;
1262;SDS011;62267;50.112;8.704;2023-04-25T11:54:29;9.40;;;5.30;;
1262;SDS011;62267;50.112;8.704;2023-04-25T11:56:57;6.73;;;6.13;;
1262;SDS011;62267;50.112;8.704;2023-04-25T12:02:25;7.57;;;5.33;;
1262;SDS011;62267;50.112;8.704;2023-04-25T12:05:15;10.17;;;5.27;;
1262;SDS011;62267;50.112;8.704;2023-04-25T12:07:57;7.33;;;5.40;;
1262;SDS011;62267;50.112;8.704;2023-04-25T12:10:25;6.93;;;5.37;;
1262;SDS011;62267;50.112;8.704;2023-04-25T12:12:53;7.13;;;4.97;;
1262;SDS011;62267;50.112;8.704;2023-04-25T12:15:24;5.47;;;4.97;;
1262;SDS011;62267;50.112;8.704;2023-04-25T12:17:52;6.43;;;5.30;;
1262;SDS011;62267;50.112;8.704;2023-04-25T12:20:23;5.80;;;5.20;;
1262;SDS011;62267;50.112;8.704;2023-04-25T12:22:51;5.43;;;4.93;;
1262;SDS011;62267;50.112;8.704;2023-04-25T12:31:04;6.90;;;5.43;;
1262;SDS011;62267;50.112;8.704;2023-04-25T12:33:33;11.23;;;5.50;;
1262;SDS011;62267;50.112;8.704;2023-04-25T12:36:01;9.17;;;5.03;;
1262;SDS011;62267;50.112;8.704;2023-04-25T12:38:36;7.70;;;5.47;;
1262;SDS011;62267;50.112;8.704;2023-04-25T12:41:03;8.20;;;5.80;;
1262;SDS011;62267;50.112;8.704;2023-04-25T12:43:30;6.60;;;4.80;;
1262;SDS011;62267;50.112;8.704;2023-04-25T12:45:58;9.80;;;5.27;;
1262;SDS011;62267;50.112;8.704;2023-04-25T12:48:25;8.40;;;5.50;;
1262;SDS011;62267;50.112;8.704;2023-04-25T12:50:52;6.80;;;6.20;;
1262;SDS011;62267;50.112;8.704;2023-04-25T12:53:20;15.33;;;5.83;;
1262;SDS011;62267;50.112;8.704;2023-04-25T12:55:47;6.43;;;5.83;;
1262;SDS011;62267;50.112;8.704;2023-04-25T12:58:15;6.73;;;5.70;;
1262;SDS011;62267;50.112;8.704;2023-04-25T13:00:42;6.23;;;5.63;;
1262;SDS011;62267;50.112;8.704;2023-04-25T13:03:09;7.67;;;5.33;;
1262;SDS011;62267;50.112;8.704;2023-04-25T13:05:38;10.73;;;7.00;;
1262;SDS011;62267;50.112;8.704;2023-04-25T13:08:05;5.30;;;4.80;;
1262;SDS011;62267;50.112;8.704;2023-04-25T13:10:33;6.60;;;5.87;;
1262;SDS011;62267;50.112;8.704;2023-04-25T13:13:00;5.80;;;5.30;;
1262;SDS011;62267;50.112;8.704;2023-04-25T13:15:28;5.27;;;4.80;;
1262;SDS011;62267;50.112;8.704;2023-04-25T13:17:55;6.83;;;5.40;;
1262;SDS011;62267;50.112;8.704;2023-04-25T13:20:23;6.80;;;4.97;;
1262;SDS011;62267;50.112;8.704;2023-04-25T13:22:51;6.23;;;5.10;;
1262;SDS011;62267;50.112;8.704;2023-04-25T13:25:18;5.83;;;5.33;;
1262;SDS011;62267;50.112;8.704;2023-04-25T13:27:45;7.33;;;5.73;;
1262;SDS011;62267;50.112;8.704;2023-04-25T13:30:13;7.33;;;6.30;;
1262;SDS011;62267;50.112;8.704;2023-04-25T13:32:41;6.47;;;5.87;;
1262;SDS011;62267;50.112;8.704;2023-04-25T13:35:09;9.57;;;6.07;;
1262;SDS011;62267;50.112;8.704;2023-04-25T13:37:37;8.23;;;6.60;;
1262;SDS011;62267;50.112;8.704;2023-04-25T13:40:07;9.07;;;6.43;;
1262;SDS011;62267;50.112;8.704;2023-04-25T13:42:36;7.63;;;6.87;;
1262;SDS011;62267;50.112;8.704;2023-04-25T13:45:04;8.70;;;6.10;;
1262;SDS011;62267;50.112;8.704;2023-04-25T13:47:32;7.73;;;5.30;;
1262;SDS011;62267;50.112;8.704;2023-04-25T13:49:59;7.40;;;6.00;;
1262;SDS011;62267;50.112;8.704;2023-04-25T13:52:29;6.67;;;5.77;;
1262;SDS011;62267;50.112;8.704;2023-04-25T13:54:58;9.20;;;5.50;;
1262;SDS011;62267;50.112;8.704;2023-04-25T13:57:25;6.27;;;5.67;;
1262;SDS011;62267;50.112;8.704;2023-04-25T13:59:52;9.37;;;5.63;;
1262;SDS011;62267;50.112;8.704;2023-04-25T14:02:21;8.20;;;5.77;;
1262;SDS011;62267;50.112;8.704;2023-04-25T14:04:48;8.93;;;6.27;;
1262;SDS011;62267;50.112;8.704;2023-04-25T14:07:16;8.23;;;6.80;;
1262;SDS011;62267;50.112;8.704;2023-04-25T14:09:44;12.30;;;7.77;;
1262;SDS011;62267;50.112;8.704;2023-04-25T14:12:11;8.07;;;6.77;;
1262;SDS011;62267;50.112;8.704;2023-04-25T14:14:38;8.30;;;6.43;;
1262;SDS011;62267;50.112;8.704;2023-04-25T14:17:06;6.80;;;6.10;;
1262;SDS011;62267;50.112;8.704;2023-04-25T14:19:33;7.20;;;6.50;;
1262;SDS011;62267;50.112;8.704;2023-04-25T14:22:00;8.83;;;5.47;;
1262;SDS011;62267;50.112;8.704;2023-04-25T14:24:28;8.07;;;5.20;;
1262;SDS011;62267;50.112;8.704;2023-04-25T14:26:55;5.87;;;5.27;;
1262;SDS011;62267;50.112;8.704;2023-04-25T14:29:22;8.57;;;5.00;;
1262;SDS011;62267;50.112;8.704;2023-04-25T14:31:50;6.43;;;5.20;;
1262;SDS011;62267;50.112;8.704;2023-04-25T14:34:17;7.30;;;5.30;;
1262;SDS011;62267;50.112;8.704;2023-04-25T14:36:44;5.80;;;5.20;;
1262;SDS011;62267;50.112;8.704;2023-04-25T14:39:12;7.37;;;6.67;;
1262;SDS011;62267;50.112;8.704;2023-04-25T14:41:40;8.90;;;5.73;;
1262;SDS011;62267;50.112;8.704;2023-04-25T14:44:07;5.20;;;4.70;;
1262;SDS011;62267;50.112;8.704;2023-04-25T14:46:34;5.83;;;4.57;;
1262;SDS011;62267;50.112;8.704;2023-04-25T14:49:02;5.90;;;5.40;;
1262;SDS011;62267;50.112;8.704;2023-04-25T14:51:29;8.73;;;5.80;;
1262;SDS011;62267;50.112;8.704;2023-04-25T14:53:57;6.30;;;4.40;;
1262;SDS011;62267;50.112;8.704;2023-04-25T14:56:24;5.77;;;5.30;;
1262;SDS011;62267;50.112;8.704;2023-04-25T14:58:51;6.57;;;4.40;;
1262;SDS011;62267;50.112;8.704;2023-04-25T15:01:19;11.53;;;4.73;;
1262;SDS011;62267;50.112;8.704;2023-04-25T15:03:47;5.17;;;4.77;;
1262;SDS011;62267;50.112;8.704;2023-04-25T15:06:14;4.77;;;4.30;;
1262;SDS011;62267;50.112;8.704;2023-04-25T15:08:42;6.60;;;5.27;;
1262;SDS011;62267;50.112;8.704;2023-04-25T15:11:09;4.60;;;4.30;;
1262;SDS011;62267;50.112;8.704;2023-04-25T15:13:37;5.20;;;4.47;;
1262;SDS011;62267;50.112;8.704;2023-04-25T15:16:05;4.60;;;4.20;;
1262;SDS011;62267;50.112;8.704;2023-04-25T15:18:32;6.60;;;4.03;;
1262;SDS011;62267;50.112;8.704;2023-04-25T15:21:00;7.53;;;4.53;;
1262;SDS011;62267;50.112;8.704;2023-04-25T15:23:27;4.77;;;4.20;;
1262;SDS011;62267;50.112;8.704;2023-04-25T15:25:55;5.80;;;4.50;;
1262;SDS011;62267;50.112;8.704;2023-04-25T15:28:22;4.40;;;4.10;;
1262;SDS011;62267;50.112;8.704;2023-04-25T15:30:49;5.23;;;4.70;;